• Join FlightAware (Why Join?)
  • Login
  • US Flag 
04:08PM EDT


 

Airport Tracker/Info


-or-


 

Live Flight TrackerFlight Track Log ✈ UAL4257 ✈ 01-Dec-2013 ✈ MMMY / MTY - KIAH

Flight Track Log - Related Links

Times and Time Zones

All times are in EST time to prevent confusion due to time zone crossing. See the UAL4257 flight status page for this flight to view local times or setup timezone preferences in your user account.

Time Position Orientation Groundspeed Altitude Reporting Facility
EST Latitude Longitude Course Direction KTS MPH feet Rate Location/Type
12:43PM 26.0773 -99.7858 47° Northeast  Level Estimated
12:43PM 25.9311 -100.0100 46° Northeast 227 261 9,900  Level Houston Center
12:44PM 26.1392 -99.6928 53° Northeast  Level FlightAware Approximate
12:44PM 25.9747 -99.9469 52° Northeast 249 287 11,100  Level Houston Center
12:45PM 26.2140 -99.6124 46° Northeast  Level Estimated
12:45PM 26.0242 -99.8706 54° Northeast 279 321 12,500  Level Houston Center
12:46PM 26.2676 -99.5171 58° Northeast  Level FlightAware Approximate
12:46PM 26.0808 -99.7958 50° Northeast 301 346 13,500  Level Houston Center
12:47PM 26.3211 -99.4218 58° Northeast  Level FlightAware Approximate
12:47PM 26.1414 -99.7139 51° Northeast 323 372 14,500  Level Houston Center
12:48PM 26.3579 -99.3714 46° Northeast  Level FlightAware Approximate
12:48PM 26.2161 -99.6078 52° Northeast 347 399 15,700  Level Houston Center
12:49PM 26.4276 -99.2900 46° Northeast  Level FlightAware Approximate
12:49PM 26.2806 -99.5175 51° Northeast 361 415 16,700  Level Houston Center
12:50PM 26.3581 -99.4333 44° Northeast 379 436 17,700 840 Climbing Houston Center
12:51PM 26.4406 -99.3583 39° Northeast 384 442 18,500 780 Climbing Houston Center
12:52PM 26.5203 -99.2767 43° Northeast 388 447 19,400 900 Climbing Houston Center
12:53PM 26.6044 -99.1942 41° Northeast 399 459 20,400 1,020 Climbing Houston Center
12:54PM 26.7050 -99.0933 42° Northeast 405 466 21,600 1,020 Climbing Houston Center
12:55PM 26.7906 -99.0097 41° Northeast 409 471 22,600 960 Climbing Houston Center
12:57PM 26.8769 -98.9225 42° Northeast 419 482 23,600 900 Climbing Houston Center
12:58PM 26.9633 -98.8364 42° Northeast 418 481 24,500 900 Climbing Houston Center
12:59PM 27.0500 -98.7497 42° Northeast 419 482 25,500 1,140 Climbing Houston Center
01:00PM 27.1550 -98.6456 41° Northeast 423 487 26,900 1,260 Climbing Houston Center
01:01PM 27.2403 -98.5589 42° Northeast 419 482 28,200 1,260 Climbing Houston Center
01:02PM 27.3244 -98.4744 42° Northeast 411 473 29,600 1,200 Climbing Houston Center
01:03PM 27.4086 -98.3894 42° Northeast 410 472 30,700 660 Climbing Houston Center
01:04PM 27.5136 -98.2839 42° Northeast 423 487 31,000 120 Climbing Houston Center
01:05PM 27.6075 -98.1886 42° Northeast 451 519 31,000  Level Houston Center
01:06PM 27.7050 -98.0892 42° Northeast 470 541 31,000  Level Houston Center
01:07PM 27.8125 -97.9803 42° Northeast 478 550 31,000  Level Houston Center
01:08PM 27.9108 -97.8794 42° Northeast 478 550 31,000  Level Houston Center
01:09PM 28.0131 -97.7739 42° Northeast 481 554 31,000  Level Houston Center
01:10PM 28.1142 -97.6706 42° Northeast 480 552 31,000  Level Houston Center
01:11PM 28.2186 -97.5625 42° Northeast 484 557 31,000  Level Houston Center
01:12PM 28.3267 -97.4500 42° Northeast 483 556 31,000  Level Houston Center
01:13PM 28.4261 -97.3464 42° Northeast 485 558 31,000  Level Houston Center
01:14PM 28.5256 -97.2425 43° Northeast 485 558 31,000  Level Houston Center
01:15PM 28.6250 -97.1397 42° Northeast 485 558 31,000  Level Houston Center
01:16PM 28.7239 -97.0367 42° Northeast 484 557 31,000 -420 Level Houston Center
01:17PM 28.8428 -96.9119 43° Northeast 487 560 30,200 -1,800 Descending Houston Center
01:18PM 28.9406 -96.8081 43° Northeast 484 557 27,300 -2,820 Descending Houston Center
01:19PM 29.0417 -96.7022 42° Northeast 496 571 24,400 -2,820 Descending Houston Center
01:20PM 29.1386 -96.6014 42° Northeast 477 549 21,500 -3,120 Descending Houston Center
01:21PM 29.1719 -96.5622 46° Northeast 464 534 20,200 -2,940 Descending Houston Center
01:21PM 29.2281 -96.5050 42° Northeast 449 517 18,500 -2,700 Descending Houston Center
01:22PM 29.2725 -96.4606 41° Northeast 432 497 17,500 -2,700 Descending Houston Center
01:22PM 29.3322 -96.3953 44° Northeast 431 496 15,700 -2,460 Descending Houston Center
01:23PM 29.3592 -96.3672 42° Northeast 421 484 15,000 -2,340 Descending Houston Center
01:23PM 29.4144 -96.3094 42° Northeast 406 467 13,300 -2,460 Descending Houston Center
01:24PM 29.4381 -96.2842 43° Northeast 385 443 12,500 -1,380 Descending Houston Center
01:24PM 29.4875 -96.2297 44° Northeast 378 435 11,900 -540 Descending Houston Center
01:25PM 29.5072 -96.2094 42° Northeast 338 389 12,000 -120 Climbing Houston Center
01:26PM 29.5528 -96.1575 45° Northeast 340 391 11,800 -540 Descending Houston Center
01:26PM 29.5686 -96.1161 66° East 341 392 11,500 -900 Descending Houston Center
01:27PM 29.5989 -96.0603 58° Northeast 345 397 10,900 -1,020 Descending Houston Center
01:27PM 29.6194 -96.0239 57° Northeast 339 390 10,500 -900 Descending Houston Center
01:28PM 29.6581 -95.9453 61° Northeast 346 398 10,000 -600 Descending Houston Center
01:28PM 29.6619 -95.9350 66° East 350 403 10,000 -420 Level Houston Center
01:29PM 29.7039 -95.8544 59° Northeast 336 387 9,600 -600 Descending Houston Center
01:29PM 29.7067 -95.8456 70° East 297 342 9,400 -1,440 Descending Houston Center
01:30PM 29.7450 -95.7714 59° Northeast 303 349 8,100 -1,620 Descending Houston Center
01:30PM 29.7514 -95.7586 60° Northeast 301 346 7,800 -1,380 Descending Houston Center
01:31PM 29.7861 -95.6908 59° Northeast 294 338 6,700 -1,320 Descending Houston Center
01:31PM 29.7925 -95.6769 62° Northeast 286 329 6,500 -720 Descending Houston Center
01:32PM 29.8236 -95.6136 60° Northeast 279 321 6,000 -540 Descending Houston Center
01:32PM 29.8297 -95.6003 62° Northeast 275 316 6,000  Level Houston Center
01:33PM 29.8631 -95.5364 59° Northeast 278 320 6,000  Level Houston Center
01:33PM 29.8706 -95.5183 64° Northeast 280 322 6,000  Level Houston Center
01:34PM 29.8953 -95.4378 70° East 277 319 6,000  Level Houston Center
01:34PM 29.8944 -95.4361 120° Southeast 278 320 6,000  Level Houston Center
01:35PM 29.8967 -95.3442 88° East 274 315 6,000  Level Houston Center
01:36PM 29.8961 -95.2653 90° East 262 302 6,000 -240 Level Houston Center
01:37PM 29.8969 -95.1889 89° East 240 276 5,600 -540 Descending Houston Center
01:37PM 29.8964 -95.1803 94° East 242 278 5,400 -1,380 Descending Houston Center
01:38PM 29.9050 -95.1142 81° East 236 272 4,200 -1,380 Descending Houston Center
01:38PM 29.9167 -95.1056 33° Northeast 246 283 4,000 -720 Descending Houston Center
01:39PM 29.9700 -95.1158 351° North 224 258 3,500 -360 Descending Houston Center
01:39PM 29.9658 -95.1086 124° Southeast 236 272 3,700 -1,140 Climbing Houston Center
01:40PM 29.9789 -95.1742 283° West 221 254 2,300 -1,500 Descending Houston Center
01:40PM 29.9769 -95.1897 262° West 214 246 2,100 -1,080 Descending Houston Center
01:41PM 29.9769 -95.2458 270° West 203 234 1,200 -900 Descending Houston Center
01:41PM 29.9778 -95.2450 41° Northeast 161 185 1,200 -780 Level Houston Center
01:42PM 29.9769 -95.2889 269° West 162 186 400 -840 Descending Houston Center